createdAt,value
2022-10-19T00:01:56.999Z,10.68
2022-10-19T00:04:27.160Z,10.95
2022-10-19T00:06:57.197Z,9.98
2022-10-19T00:09:27.637Z,13.13
2022-10-19T00:11:57.649Z,11.15
2022-10-19T00:14:30.330Z,9.65
2022-10-19T00:17:00.354Z,11.13
2022-10-19T00:19:31.592Z,9.55
2022-10-19T00:22:01.586Z,10.02
2022-10-19T00:24:31.595Z,12.57
2022-10-19T00:27:01.716Z,9.95
2022-10-19T00:29:34.294Z,10.80
2022-10-19T00:32:04.289Z,11.25
2022-10-19T00:34:34.349Z,11.13
2022-10-19T00:37:04.491Z,9.82
2022-10-19T00:39:34.444Z,10.27
2022-10-19T00:42:04.547Z,11.55
2022-10-19T00:45:06.327Z,9.27
2022-10-19T00:47:37.346Z,10.48
2022-10-19T00:50:08.337Z,9.60
2022-10-19T00:52:38.507Z,10.93
2022-10-19T00:55:11.582Z,9.73
2022-10-19T00:57:43.334Z,9.88
2022-10-19T01:00:16.819Z,12.23
2022-10-19T01:02:46.850Z,11.57
2022-10-19T01:05:17.995Z,12.02
2022-10-19T01:07:48.407Z,11.00
2022-10-19T01:10:18.851Z,10.98
2022-10-19T01:13:06.370Z,11.25
2022-10-19T01:15:46.327Z,9.70
2022-10-19T01:18:24.126Z,10.43
2022-10-19T01:21:20.473Z,12.43
2022-10-19T01:24:29.069Z,11.20
2022-10-19T01:27:30.635Z,10.57
2022-10-19T01:30:09.129Z,11.63
2022-10-19T01:32:52.979Z,11.02
2022-10-19T01:35:30.729Z,11.10
2022-10-19T01:38:10.660Z,13.32
2022-10-19T01:40:49.633Z,10.10
2022-10-19T01:43:27.201Z,11.98
2022-10-19T01:46:07.455Z,11.45
2022-10-19T01:48:41.762Z,14.07
2022-10-19T01:51:16.029Z,11.00
2022-10-19T01:53:50.361Z,13.75
2022-10-19T01:56:23.405Z,13.30
2022-10-19T01:58:55.671Z,15.60
2022-10-19T02:01:33.469Z,13.73
2022-10-19T02:04:04.897Z,16.65
2022-10-19T02:06:34.928Z,12.70
2022-10-19T02:09:05.001Z,14.60
2022-10-19T02:11:36.060Z,11.35
2022-10-19T02:14:10.820Z,10.75
2022-10-19T02:16:47.957Z,13.20
2022-10-19T02:19:19.502Z,14.25
2022-10-19T02:21:50.133Z,12.85
2022-10-19T02:24:20.172Z,11.82
2022-10-19T02:26:50.364Z,13.85
2022-10-19T02:29:20.455Z,12.40
2022-10-19T02:31:53.137Z,10.02
2022-10-19T02:34:23.293Z,14.55
2022-10-19T02:36:53.366Z,12.73
2022-10-19T02:39:24.047Z,13.23
2022-10-19T02:42:02.848Z,12.68
2022-10-19T02:44:36.253Z,13.63
2022-10-19T02:47:13.573Z,12.00
2022-10-19T02:49:45.760Z,10.90
2022-10-19T02:52:17.109Z,11.82
2022-10-19T02:54:50.840Z,13.98
2022-10-19T02:57:23.324Z,16.90
2022-10-19T02:59:54.085Z,11.60
2022-10-19T03:02:27.415Z,11.48
2022-10-19T03:04:57.376Z,12.77
2022-10-19T03:07:27.489Z,10.48
2022-10-19T03:09:57.508Z,12.48
2022-10-19T03:12:27.600Z,12.80
2022-10-19T03:14:57.673Z,12.18
2022-10-19T03:17:30.275Z,11.32
2022-10-19T03:20:02.336Z,10.85
2022-10-19T03:22:32.489Z,18.63
2022-10-19T03:25:02.519Z,12.50
2022-10-19T03:27:32.724Z,17.63
2022-10-19T03:30:11.086Z,11.18
2022-10-19T03:32:43.723Z,11.80
2022-10-19T03:35:13.904Z,9.20
2022-10-19T03:37:43.870Z,13.05
2022-10-19T03:40:15.173Z,11.00
2022-10-19T03:42:45.272Z,10.88
2022-10-19T03:45:15.200Z,11.70
2022-10-19T03:47:52.204Z,10.57
2022-10-19T03:50:24.675Z,13.32
2022-10-19T03:52:54.801Z,11.82
2022-10-19T03:55:25.005Z,10.93
2022-10-19T03:57:55.228Z,11.77
2022-10-19T04:00:25.212Z,10.88
2022-10-19T04:02:57.852Z,11.48
2022-10-19T04:05:27.767Z,12.07
2022-10-19T04:07:57.740Z,10.32
2022-10-19T04:10:28.068Z,15.77
2022-10-19T04:12:58.080Z,14.25
2022-10-19T04:15:28.164Z,10.32
2022-10-19T04:18:00.724Z,11.27
2022-10-19T04:20:31.790Z,12.32
2022-10-19T04:23:02.640Z,11.38
2022-10-19T04:25:32.712Z,9.88
2022-10-19T04:28:02.734Z,11.98
2022-10-19T04:30:34.550Z,11.70
2022-10-19T04:33:07.259Z,13.35
2022-10-19T04:35:37.346Z,10.52
2022-10-19T04:38:07.402Z,13.88
2022-10-19T04:40:38.781Z,13.00
2022-10-19T04:43:08.780Z,14.02
2022-10-19T04:45:39.154Z,9.65
2022-10-19T04:48:14.639Z,11.85
2022-10-19T04:50:45.283Z,12.32
2022-10-19T04:53:15.326Z,11.77
2022-10-19T04:55:45.441Z,15.10
2022-10-19T04:58:15.454Z,13.90
2022-10-19T05:00:46.006Z,16.45
2022-10-19T05:03:19.086Z,12.05
2022-10-19T05:05:49.120Z,16.53
2022-10-19T05:08:19.220Z,16.33
2022-10-19T05:10:49.153Z,12.40
2022-10-19T05:13:19.189Z,13.00
2022-10-19T05:15:58.627Z,13.02
2022-10-19T05:18:31.881Z,12.13
2022-10-19T05:21:06.857Z,12.23
2022-10-19T05:23:37.771Z,13.23
2022-10-19T05:26:10.605Z,11.73
2022-10-19T05:28:41.036Z,13.60
2022-10-19T05:31:13.573Z,13.95
2022-10-19T05:33:47.083Z,15.82
2022-10-19T05:36:19.670Z,11.88
2022-10-19T05:38:54.965Z,13.90
2022-10-19T05:41:25.864Z,10.52
2022-10-19T05:43:57.235Z,14.05
2022-10-19T05:46:28.269Z,12.45
2022-10-19T05:49:02.192Z,14.60
2022-10-19T05:51:35.268Z,13.15
2022-10-19T05:54:05.243Z,10.07
2022-10-19T05:56:35.836Z,10.05
2022-10-19T05:59:08.341Z,9.63
2022-10-19T06:01:39.255Z,10.65
2022-10-19T06:04:14.231Z,10.55
2022-10-19T06:06:46.009Z,6.78
2022-10-19T06:09:16.105Z,6.60
2022-10-19T06:11:46.664Z,5.80
2022-10-19T06:14:18.485Z,6.13
2022-10-19T06:16:48.668Z,5.65
2022-10-19T06:19:21.213Z,5.43
2022-10-19T06:21:51.228Z,7.30
2022-10-19T06:24:21.133Z,5.78
2022-10-19T06:26:51.122Z,6.07
2022-10-19T06:29:21.149Z,6.63
2022-10-19T06:31:52.212Z,6.68
2022-10-19T06:34:25.118Z,5.45
2022-10-19T06:36:55.178Z,7.70
2022-10-19T06:39:25.182Z,5.15
2022-10-19T06:41:55.146Z,7.35
2022-10-19T06:44:25.301Z,6.07
2022-10-19T06:46:55.362Z,5.15
2022-10-19T06:49:28.067Z,5.50
2022-10-19T06:51:58.048Z,6.57
2022-10-19T06:54:28.389Z,10.15
2022-10-19T06:56:58.358Z,9.82
2022-10-19T06:59:28.725Z,10.02
2022-10-19T07:01:58.921Z,9.88
2022-10-19T07:04:32.293Z,10.00
2022-10-19T07:07:02.300Z,8.35
2022-10-19T07:09:33.726Z,7.32
2022-10-19T07:12:03.721Z,7.90
2022-10-19T07:14:38.797Z,7.93
2022-10-19T07:17:08.854Z,10.85
2022-10-19T07:19:41.599Z,8.38
2022-10-19T07:22:15.541Z,10.35
2022-10-19T07:24:48.795Z,8.32
2022-10-19T07:27:18.908Z,10.45
2022-10-19T07:29:49.344Z,6.95
2022-10-19T07:32:19.414Z,7.88
2022-10-19T07:34:52.058Z,6.72
2022-10-19T07:37:22.022Z,5.95
2022-10-19T07:39:55.520Z,5.97
2022-10-19T07:42:25.691Z,4.82
2022-10-19T07:44:55.665Z,5.63
2022-10-19T07:47:25.750Z,5.43
2022-10-19T07:49:58.567Z,4.57
2022-10-19T07:52:30.776Z,6.07
2022-10-19T07:55:03.126Z,5.20
2022-10-19T07:57:33.287Z,6.07
2022-10-19T08:00:04.146Z,5.30
2022-10-19T08:02:45.645Z,5.38
2022-10-19T08:05:26.939Z,6.78
2022-10-19T08:07:57.191Z,5.40
2022-10-19T08:10:34.157Z,5.50
2022-10-19T08:13:04.110Z,4.90
2022-10-19T08:15:34.065Z,4.70
2022-10-19T08:18:04.050Z,7.78
2022-10-19T08:20:37.043Z,6.32
2022-10-19T08:23:07.097Z,6.53
2022-10-19T08:25:37.365Z,9.85
2022-10-19T08:28:07.400Z,6.07
2022-10-19T08:30:38.028Z,7.60
2022-10-19T08:33:08.530Z,9.20
2022-10-19T08:35:41.231Z,7.55
2022-10-19T08:38:11.550Z,6.65
2022-10-19T08:40:42.561Z,10.38
2022-10-19T08:43:21.319Z,8.52
2022-10-19T08:46:01.350Z,8.45
2022-10-19T08:48:33.299Z,9.77
2022-10-19T08:51:09.421Z,7.13
2022-10-19T08:53:47.288Z,6.90
2022-10-19T08:56:50.023Z,7.50
2022-10-19T08:59:24.620Z,7.65
2022-10-19T09:01:58.211Z,8.23
2022-10-19T09:04:33.408Z,5.90
2022-10-19T09:07:25.453Z,6.05
2022-10-19T09:10:00.056Z,5.88
2022-10-19T09:12:45.027Z,5.82
2022-10-19T09:15:17.766Z,6.07
2022-10-19T09:17:48.043Z,5.63
2022-10-19T09:20:21.697Z,8.15
2022-10-19T09:25:32.570Z,5.80
2022-10-19T09:28:13.367Z,5.80
2022-10-19T09:30:45.671Z,5.60
2022-10-19T09:33:22.077Z,5.53
2022-10-19T09:35:53.428Z,4.88
2022-10-19T09:38:29.779Z,5.20
2022-10-19T09:41:00.695Z,6.40
2022-10-19T09:43:30.899Z,4.57
2022-10-19T09:46:18.549Z,5.15
2022-10-19T09:48:53.610Z,5.68
2022-10-19T09:53:59.928Z,5.55
2022-10-19T09:56:30.959Z,4.93
2022-10-19T09:59:04.716Z,5.93
2022-10-19T10:01:41.952Z,5.07
2022-10-19T10:04:18.173Z,4.78
2022-10-19T10:06:50.914Z,5.05
2022-10-19T10:09:28.501Z,5.95
2022-10-19T10:12:01.466Z,4.88
2022-10-19T10:14:35.179Z,8.88
2022-10-19T10:19:38.238Z,5.28
2022-10-19T10:22:08.264Z,5.90
2022-10-19T10:24:54.938Z,5.90
2022-10-19T10:27:32.542Z,5.80
2022-10-19T10:30:10.103Z,6.00
2022-10-19T10:32:44.419Z,5.25
2022-10-19T10:35:21.545Z,5.43
2022-10-19T10:37:52.842Z,7.28
2022-10-19T10:40:32.378Z,6.13
2022-10-19T10:43:07.653Z,6.00
2022-10-19T10:45:44.133Z,5.68
2022-10-19T10:48:25.248Z,7.00
2022-10-19T10:50:55.615Z,6.78
2022-10-19T10:53:36.753Z,7.10
2022-10-19T10:56:24.558Z,5.80
2022-10-19T10:59:00.494Z,6.07
2022-10-19T11:01:36.165Z,7.55
2022-10-19T11:04:11.543Z,9.45
2022-10-19T11:06:50.380Z,6.47
2022-10-19T11:09:27.391Z,7.28
2022-10-19T11:12:02.889Z,6.18
2022-10-19T11:14:39.748Z,6.18
2022-10-19T11:17:27.049Z,5.38
2022-10-19T11:20:01.550Z,6.22
2022-10-19T11:22:38.543Z,5.78
2022-10-19T11:25:32.420Z,5.55
2022-10-19T11:28:19.780Z,6.63
2022-10-19T11:31:13.646Z,6.40
2022-10-19T11:33:57.534Z,5.57
2022-10-19T11:36:48.791Z,7.43
2022-10-19T11:39:42.228Z,5.40
2022-10-19T11:42:21.865Z,5.57
2022-10-19T11:45:05.109Z,5.25
2022-10-19T11:47:59.731Z,8.55
2022-10-19T11:50:44.166Z,6.63
2022-10-19T11:53:27.166Z,5.82
2022-10-19T11:56:06.954Z,8.20
2022-10-19T11:58:47.061Z,10.00
2022-10-19T12:01:31.588Z,6.45
2022-10-19T12:04:48.286Z,7.35
2022-10-19T12:07:42.857Z,6.78
2022-10-19T12:10:26.114Z,8.43
2022-10-19T12:12:59.764Z,7.18
2022-10-19T12:15:33.641Z,7.13
2022-10-19T12:18:14.762Z,8.73
2022-10-19T12:20:50.457Z,7.47
2022-10-19T12:23:29.589Z,6.88
2022-10-19T12:26:02.851Z,7.85
2022-10-19T12:28:35.388Z,8.15
2022-10-19T12:31:12.273Z,6.75
2022-10-19T12:33:52.045Z,8.30
2022-10-19T12:36:39.661Z,8.75
2022-10-19T12:39:18.808Z,8.10
2022-10-19T12:41:56.319Z,7.05
2022-10-19T12:44:44.009Z,9.85
2022-10-19T12:47:19.981Z,8.00
2022-10-19T12:49:55.258Z,7.15
2022-10-19T12:52:52.379Z,7.05
2022-10-19T12:55:35.063Z,7.40
2022-10-19T12:58:08.041Z,5.05
2022-10-19T13:00:40.608Z,6.20
2022-10-19T13:03:18.507Z,5.35
2022-10-19T13:05:59.450Z,5.22
2022-10-19T13:08:33.412Z,5.05
2022-10-19T13:11:09.605Z,5.70
2022-10-19T13:14:02.300Z,5.10
2022-10-19T13:16:43.756Z,5.45
2022-10-19T13:19:24.298Z,8.85
2022-10-19T13:22:27.293Z,5.55
2022-10-19T13:25:23.733Z,3.97
2022-10-19T13:27:54.757Z,4.63
2022-10-19T13:31:03.270Z,6.97
2022-10-19T13:33:47.103Z,4.45
2022-10-19T13:36:17.642Z,5.35
2022-10-19T13:38:49.501Z,4.20
2022-10-19T13:41:25.940Z,5.50
2022-10-19T13:44:06.875Z,4.32
2022-10-19T13:47:06.755Z,3.67
2022-10-19T13:49:52.052Z,7.53
2022-10-19T13:52:51.209Z,4.40
2022-10-19T13:55:48.978Z,3.90
2022-10-19T13:58:51.692Z,4.55
2022-10-19T14:01:36.173Z,5.03
2022-10-19T14:04:29.547Z,4.15
2022-10-19T14:07:08.298Z,3.95
2022-10-19T14:09:58.178Z,4.82
2022-10-19T14:12:30.600Z,4.40
2022-10-19T14:15:00.638Z,4.10
2022-10-19T14:17:35.464Z,4.75
2022-10-19T14:20:25.772Z,6.10
2022-10-19T14:22:58.907Z,3.72
2022-10-19T14:25:31.974Z,4.57
2022-10-19T14:28:05.074Z,6.00
2022-10-19T14:30:38.445Z,4.30
2022-10-19T14:33:11.965Z,4.13
2022-10-19T14:35:45.091Z,6.10
2022-10-19T14:38:23.225Z,4.30
2022-10-19T14:40:53.312Z,4.72
2022-10-19T14:43:26.025Z,4.40
2022-10-19T14:46:14.690Z,4.72
2022-10-19T14:48:48.677Z,5.40
2022-10-19T14:53:58.009Z,5.13
2022-10-19T14:56:32.082Z,4.35
2022-10-19T14:59:05.200Z,4.60
2022-10-19T15:01:35.659Z,4.63
2022-10-19T15:04:06.581Z,6.53
2022-10-19T15:06:42.543Z,4.10
2022-10-19T15:09:37.680Z,4.95
2022-10-19T15:12:19.602Z,4.32
2022-10-19T15:14:50.950Z,5.50
2022-10-19T15:17:27.640Z,4.53
2022-10-19T15:20:01.385Z,4.57
2022-10-19T15:22:43.265Z,3.63
2022-10-19T15:25:29.590Z,6.28
2022-10-19T15:27:59.671Z,4.05
2022-10-19T15:30:34.370Z,5.07
2022-10-19T15:33:18.126Z,3.70
2022-10-19T15:35:49.503Z,3.28
2022-10-19T15:38:25.990Z,4.32
2022-10-19T15:41:03.650Z,7.35
2022-10-19T15:43:48.840Z,5.82
2022-10-19T15:46:28.511Z,3.75
2022-10-19T15:49:04.532Z,4.60
2022-10-19T15:51:46.408Z,3.95
2022-10-19T15:54:19.183Z,5.70
2022-10-19T15:56:56.552Z,5.72
2022-10-19T15:59:26.693Z,5.35
2022-10-19T16:01:56.742Z,5.32
2022-10-19T16:04:26.917Z,6.68
2022-10-19T16:06:57.211Z,8.50
2022-10-19T16:09:27.377Z,6.07
2022-10-19T16:12:00.158Z,7.35
2022-10-19T16:14:33.040Z,5.70
2022-10-19T16:17:05.993Z,8.77
2022-10-19T16:19:37.635Z,7.25
2022-10-19T16:22:07.993Z,7.20
2022-10-19T16:24:38.454Z,7.38
2022-10-19T16:27:15.214Z,5.72
2022-10-19T16:29:46.097Z,8.25
2022-10-19T16:32:16.959Z,7.90
2022-10-19T16:34:47.478Z,9.98
2022-10-19T16:37:18.082Z,8.88
2022-10-19T16:39:49.852Z,8.85
2022-10-19T16:42:24.625Z,6.65
2022-10-19T16:44:57.078Z,8.05
2022-10-19T16:47:27.350Z,7.32
2022-10-19T16:50:03.257Z,7.10
2022-10-19T16:52:34.623Z,6.53
2022-10-19T16:55:06.619Z,5.90
2022-10-19T16:57:40.151Z,5.07
2022-10-19T17:00:11.504Z,7.22
2022-10-19T17:02:45.746Z,6.45
2022-10-19T17:05:16.947Z,8.10
2022-10-19T17:07:47.346Z,6.28
2022-10-19T17:10:20.599Z,5.53
2022-10-19T17:12:53.487Z,6.85
2022-10-19T17:15:42.147Z,7.13
2022-10-19T17:18:13.220Z,6.80
2022-10-19T17:20:43.571Z,7.22
2022-10-19T17:23:17.086Z,8.27
2022-10-19T17:25:51.185Z,7.93
2022-10-19T17:28:27.843Z,8.40
2022-10-19T17:30:58.922Z,8.55
2022-10-19T17:33:30.155Z,7.30
2022-10-19T17:36:07.138Z,7.93
2022-10-19T17:38:37.855Z,8.98
2022-10-19T17:41:10.377Z,12.45
2022-10-19T17:43:46.077Z,8.53
2022-10-19T17:46:23.043Z,6.45
2022-10-19T17:48:53.475Z,8.77
2022-10-19T17:51:27.215Z,7.88
2022-10-19T17:54:01.786Z,9.70
2022-10-19T17:56:33.082Z,9.63
2022-10-19T17:59:09.008Z,7.97
2022-10-19T18:01:40.037Z,7.30
2022-10-19T18:04:10.269Z,7.72
2022-10-19T18:06:41.468Z,6.75
2022-10-19T18:09:13.770Z,5.78
2022-10-19T18:11:46.027Z,7.03
2022-10-19T18:14:19.363Z,5.45
2022-10-19T18:16:50.448Z,5.85
2022-10-19T18:19:21.353Z,5.65
2022-10-19T18:21:53.554Z,6.78
2022-10-19T18:24:24.035Z,8.45
2022-10-19T18:26:55.447Z,10.40
2022-10-19T18:29:29.252Z,8.40
2022-10-19T18:32:01.698Z,8.55
2022-10-19T18:34:32.936Z,8.55
2022-10-19T18:37:03.307Z,7.75
2022-10-19T18:39:33.938Z,10.38
2022-10-19T18:42:05.170Z,8.55
2022-10-19T18:44:38.126Z,6.47
2022-10-19T18:47:09.174Z,9.43
2022-10-19T18:49:40.074Z,6.70
2022-10-19T18:52:10.585Z,7.38
2022-10-19T18:54:41.306Z,6.45
2022-10-19T18:57:14.681Z,8.43
2022-10-19T18:59:53.198Z,7.95
2022-10-19T19:05:09.262Z,8.75
2022-10-19T19:07:40.108Z,9.13
2022-10-19T19:10:10.980Z,6.25
2022-10-19T19:12:41.812Z,10.35
2022-10-19T19:15:15.381Z,9.48
2022-10-19T19:17:46.415Z,7.47
2022-10-19T19:20:19.915Z,10.00
2022-10-19T19:22:52.579Z,8.05
2022-10-19T19:25:23.101Z,6.38
2022-10-19T19:27:53.414Z,6.80
2022-10-19T19:30:27.989Z,7.28
2022-10-19T19:32:58.564Z,9.10
2022-10-19T19:35:28.913Z,8.68
2022-10-19T19:37:59.173Z,7.10
2022-10-19T19:40:30.226Z,9.10
2022-10-19T19:43:01.507Z,7.72
2022-10-19T19:45:34.536Z,11.77
2022-10-19T19:48:07.693Z,6.78
2022-10-19T19:50:40.391Z,10.05
2022-10-19T19:53:10.817Z,8.52
2022-10-19T19:55:41.524Z,11.10
2022-10-19T19:58:12.818Z,6.80
2022-10-19T20:00:46.239Z,10.05
2022-10-19T20:03:16.525Z,7.03
2022-10-19T20:05:47.490Z,7.55
2022-10-19T20:08:21.040Z,10.48
2022-10-19T20:10:54.549Z,7.63
2022-10-19T20:13:25.232Z,7.32
2022-10-19T20:16:02.634Z,6.82
2022-10-19T20:18:33.417Z,7.57
2022-10-19T20:21:04.275Z,7.13
2022-10-19T20:23:35.396Z,7.97
2022-10-19T20:26:09.152Z,12.10
2022-10-19T20:28:39.412Z,7.18
2022-10-19T20:31:13.768Z,7.97
2022-10-19T20:33:47.403Z,7.45
2022-10-19T20:36:20.052Z,7.10
2022-10-19T20:38:55.694Z,9.95
2022-10-19T20:41:27.620Z,7.25
2022-10-19T20:44:00.130Z,13.15
2022-10-19T20:46:33.473Z,8.13
2022-10-19T20:49:04.880Z,6.63
2022-10-19T20:51:36.933Z,9.32
2022-10-19T20:54:09.714Z,8.45
2022-10-19T20:56:41.801Z,6.40
2022-10-19T20:59:16.813Z,7.97
2022-10-19T21:01:54.384Z,8.25
2022-10-19T21:04:25.010Z,6.90
2022-10-19T21:06:55.877Z,12.10
2022-10-19T21:09:26.732Z,8.48
2022-10-19T21:11:56.743Z,7.03
2022-10-19T21:14:29.110Z,6.90
2022-10-19T21:17:02.792Z,7.88
2022-10-19T21:19:34.442Z,5.28
2022-10-19T21:22:06.356Z,6.72
2022-10-19T21:24:39.588Z,7.00
2022-10-19T21:27:11.880Z,9.38
2022-10-19T21:29:44.358Z,6.32
2022-10-19T21:32:18.432Z,8.50
2022-10-19T21:34:48.471Z,7.93
2022-10-19T21:37:18.446Z,7.35
2022-10-19T21:39:53.341Z,7.05
2022-10-19T21:42:23.317Z,6.30
2022-10-19T21:44:57.221Z,9.63
2022-10-19T21:47:34.271Z,7.93
2022-10-19T21:50:05.727Z,6.80
2022-10-19T21:52:35.846Z,6.72
2022-10-19T21:55:06.025Z,7.90
2022-10-19T21:57:36.367Z,6.82
2022-10-19T22:00:10.703Z,6.70
2022-10-19T22:02:43.339Z,5.25
2022-10-19T22:05:13.355Z,6.32
2022-10-19T22:07:43.398Z,7.20
2022-10-19T22:10:14.225Z,5.28
2022-10-19T22:12:44.197Z,6.38
2022-10-19T22:15:14.652Z,5.68
2022-10-19T22:17:47.262Z,6.20
2022-10-19T22:20:18.314Z,5.28
2022-10-19T22:22:50.316Z,7.13
2022-10-19T22:25:22.844Z,7.25
2022-10-19T22:27:52.935Z,6.70
2022-10-19T22:30:24.299Z,4.95
2022-10-19T22:32:56.964Z,5.70
2022-10-19T22:35:26.970Z,5.47
2022-10-19T22:37:57.097Z,5.53
2022-10-19T22:40:27.093Z,5.40
2022-10-19T22:43:04.915Z,5.10
2022-10-19T22:45:36.913Z,6.60
2022-10-19T22:48:09.910Z,5.45
2022-10-19T22:50:40.139Z,7.27
2022-10-19T22:53:10.242Z,7.22
2022-10-19T22:55:40.808Z,6.72
2022-10-19T23:01:04.219Z,4.78
2022-10-19T23:03:39.398Z,5.10
2022-10-19T23:06:10.259Z,4.85
2022-10-19T23:08:43.139Z,5.20
2022-10-19T23:11:13.670Z,5.57
2022-10-19T23:13:43.877Z,7.22
2022-10-19T23:16:15.065Z,6.15
2022-10-19T23:18:47.827Z,7.38
2022-10-19T23:21:18.439Z,9.35
2022-10-19T23:23:48.586Z,9.05
2022-10-19T23:26:20.794Z,9.82
2022-10-19T23:28:52.743Z,10.88
2022-10-19T23:31:26.191Z,8.43
2022-10-19T23:33:59.285Z,9.95
2022-10-19T23:36:31.162Z,12.27
2022-10-19T23:39:01.482Z,8.95
2022-10-19T23:41:31.519Z,9.75
2022-10-19T23:44:01.519Z,11.30
2022-10-19T23:46:31.491Z,7.20
2022-10-19T23:49:04.141Z,8.07
2022-10-19T23:51:34.123Z,7.60
2022-10-19T23:54:04.258Z,9.82
2022-10-19T23:56:34.258Z,7.50
2022-10-19T23:59:07.367Z,7.68
